Zionsville, Indiana
Current Conditions -  °F | °C
As of 12:55 AM on Saturday 20 Dec 2014 (Local Time) from KTYQ Reporting Station
Haze Haze  
Wind Chill: 29°   Ceiling: 2700
Heat Index: 29°   Visibility: 4mi
Dew Point: 26°   Wind: 0mph
Humidity: 88%   Direction: NA
Pressure: 30.26"   Gusts: NA
Location:  39.95°N, 86.26°W
Report Text: KTYQ 200555Z AUTO 00000KT 4SM BR OVC027 M01/M03 A3026 RMK AO2 T10151033 11011 21015
Loading
Personal Weather Stations






























Interactive Weather Map New forecast layout! Learn more

10-Day Weather Forecast

Advertisements
Track Severe Weather on mobile